Time;durP1;ratioP1;P1;durP2;ratioP2;P2;SDS_P1;SDS_P2;PMS_P1;PMS_P2;Temp;Humidity;BMP_temperature;BMP_pressure;BME280_temperature;BME280_humidity;BME280_pressure;Samples;Min_cycle;Max_cycle;Signal;HPM_P1;HPM_P2
2019/05/02 00:00:19;;;;;;;8.35;5.85;;;;;;;5.46;65.53906;94793.52;;;;
2019/05/02 00:01:31;;;;;;;8.35;5.85;;;;;;;5.46;65.53906;94793.52;;;;
2019/05/02 00:02:32;;;;;;;8.35;5.85;;;;;;;5.46;65.53906;94793.52;;;;
2019/05/02 00:03:33;;;;;;;8.35;5.85;;;;;;;5.46;65.53906;94793.52;;;;
2019/05/02 00:04:34;;;;;;;8.35;5.85;;;;;;;5.46;65.53906;94793.52;;;;
2019/05/02 00:05:35;;;;;;;8.35;5.85;;;;;;;5.46;65.53906;94793.52;;;;
2019/05/02 00:06:36;;;;;;;8.4;6.3;;;;;;;5.38;65.40039;94779.86;;;;
2019/05/02 00:07:38;;;;;;;8.4;6.3;;;;;;;5.38;65.40039;94779.86;;;;
2019/05/02 00:08:39;;;;;;;8.4;6.3;;;;;;;5.38;65.40039;94779.86;;;;
2019/05/02 00:09:41;;;;;;;8.4;6.3;;;;;;;5.38;65.40039;94779.86;;;;
2019/05/02 00:10:42;;;;;;;8.4;6.3;;;;;;;5.38;65.40039;94779.86;;;;
2019/05/02 00:11:44;;;;;;;8.4;6.3;;;;;;;5.38;65.40039;94779.86;;;;
2019/05/02 00:12:45;;;;;;;8.4;6.3;;;;;;;5.38;65.40039;94779.86;;;;
2019/05/02 00:13:47;;;;;;;8.4;6.3;;;;;;;5.38;65.40039;94779.86;;;;
2019/05/02 00:14:48;;;;;;;8.4;6.3;;;;;;;5.38;65.40039;94779.86;;;;
2019/05/02 00:15:49;;;;;;;8.4;6.3;;;;;;;5.38;65.40039;94779.86;;;;
2019/05/02 00:16:51;;;;;;;7.45;5.700001;;;;;;;5.44;65.25879;94777.76;;;;
2019/05/02 00:17:52;;;;;;;7.45;5.700001;;;;;;;5.44;65.25879;94777.76;;;;
2019/05/02 00:18:53;;;;;;;7.45;5.700001;;;;;;;5.44;65.25879;94777.76;;;;
2019/05/02 00:19:54;;;;;;;7.45;5.700001;;;;;;;5.44;65.25879;94777.76;;;;
2019/05/02 00:20:55;;;;;;;7.45;5.700001;;;;;;;5.44;65.25879;94777.76;;;;
2019/05/02 00:21:56;;;;;;;7.45;5.700001;;;;;;;5.44;65.25879;94777.76;;;;
2019/05/02 00:22:57;;;;;;;7.45;5.700001;;;;;;;5.44;65.25879;94777.76;;;;
2019/05/02 00:23:58;;;;;;;7.45;5.700001;;;;;;;5.44;65.25879;94777.76;;;;
2019/05/02 00:24:59;;;;;;;7.45;5.700001;;;;;;;5.44;65.25879;94777.76;;;;
2019/05/02 00:26:00;;;;;;;7.45;5.700001;;;;;;;5.44;65.25879;94777.76;;;;
2019/05/02 00:27:01;;;;;;;7.4;5.6;;;;;;;5.43;65.16406;94761.83;;;;
2019/05/02 00:28:02;;;;;;;7.4;5.6;;;;;;;5.43;65.16406;94761.83;;;;
2019/05/02 00:29:04;;;;;;;7.4;5.6;;;;;;;5.43;65.16406;94761.83;;;;
2019/05/02 00:30:05;;;;;;;7.4;5.6;;;;;;;5.43;65.16406;94761.83;;;;
2019/05/02 00:31:06;;;;;;;7.4;5.6;;;;;;;5.43;65.16406;94761.83;;;;
2019/05/02 00:32:07;;;;;;;7.4;5.6;;;;;;;5.43;65.16406;94761.83;;;;
2019/05/02 00:33:08;;;;;;;7.4;5.6;;;;;;;5.43;65.16406;94761.83;;;;
2019/05/02 00:34:09;;;;;;;7.4;5.6;;;;;;;5.43;65.16406;94761.83;;;;
2019/05/02 00:35:10;;;;;;;7.4;5.6;;;;;;;5.43;65.16406;94761.83;;;;
2019/05/02 00:36:12;;;;;;;7.4;5.6;;;;;;;5.43;65.16406;94761.83;;;;
2019/05/02 00:37:13;;;;;;;7.4;5.6;;;;;;;5.43;65.16406;94761.83;;;;
2019/05/02 00:38:14;;;;;;;7.900001;5.65;;;;;;;5.47;65.04199;94761.67;;;;
2019/05/02 00:39:15;;;;;;;7.900001;5.65;;;;;;;5.47;65.04199;94761.67;;;;
2019/05/02 00:40:16;;;;;;;7.900001;5.65;;;;;;;5.47;65.04199;94761.67;;;;
2019/05/02 00:41:17;;;;;;;7.900001;5.65;;;;;;;5.47;65.04199;94761.67;;;;
2019/05/02 00:42:18;;;;;;;7.900001;5.65;;;;;;;5.47;65.04199;94761.67;;;;
2019/05/02 00:43:19;;;;;;;7.900001;5.65;;;;;;;5.47;65.04199;94761.67;;;;
2019/05/02 00:44:20;;;;;;;7.900001;5.65;;;;;;;5.47;65.04199;94761.67;;;;
2019/05/02 00:45:21;;;;;;;7.900001;5.65;;;;;;;5.47;65.04199;94761.67;;;;
2019/05/02 00:46:22;;;;;;;7.900001;5.65;;;;;;;5.47;65.04199;94761.67;;;;
2019/05/02 00:48:00;;;;;;;7.900001;5.65;;;;;;;5.47;65.04199;94761.67;;;;
2019/05/02 00:49:02;;;;;;;10;5.849999;;;;;;;5.36;64.93066;94747.14;;;;
2019/05/02 00:50:03;;;;;;;10;5.849999;;;;;;;5.36;64.93066;94747.14;;;;
2019/05/02 00:51:05;;;;;;;10;5.849999;;;;;;;5.36;64.93066;94747.14;;;;
2019/05/02 00:52:06;;;;;;;10;5.849999;;;;;;;5.36;64.93066;94747.14;;;;
2019/05/02 00:53:07;;;;;;;10;5.849999;;;;;;;5.36;64.93066;94747.14;;;;
2019/05/02 00:54:08;;;;;;;10;5.849999;;;;;;;5.36;64.93066;94747.14;;;;
2019/05/02 00:55:09;;;;;;;10;5.849999;;;;;;;5.36;64.93066;94747.14;;;;
2019/05/02 00:56:10;;;;;;;10;5.849999;;;;;;;5.36;64.93066;94747.14;;;;
2019/05/02 00:57:11;;;;;;;10;5.849999;;;;;;;5.36;64.93066;94747.14;;;;
2019/05/02 00:58:13;;;;;;;10;5.849999;;;;;;;5.36;64.93066;94747.14;;;;
2019/05/02 00:59:14;;;;;;;8.550001;5.5;;;;;;;5.37;65.16406;94745.29;;;;
2019/05/02 01:00:15;;;;;;;8.550001;5.5;;;;;;;5.37;65.16406;94745.29;;;;
2019/05/02 01:01:39;;;;;;;8.550001;5.5;;;;;;;5.37;65.16406;94745.29;;;;
2019/05/02 01:02:48;;;;;;;8.550001;5.5;;;;;;;5.37;65.16406;94745.29;;;;
2019/05/02 01:03:52;;;;;;;8.550001;5.5;;;;;;;5.37;65.16406;94745.29;;;;
2019/05/02 01:04:54;;;;;;;8.550001;5.5;;;;;;;5.37;65.16406;94745.29;;;;
2019/05/02 01:05:55;;;;;;;8.550001;5.5;;;;;;;5.37;65.16406;94745.29;;;;
2019/05/02 01:06:56;;;;;;;8.550001;5.5;;;;;;;5.37;65.16406;94745.29;;;;
2019/05/02 01:07:58;;;;;;;8.550001;5.5;;;;;;;5.37;65.16406;94745.29;;;;
2019/05/02 01:08:59;;;;;;;8.550001;5.5;;;;;;;5.37;65.16406;94745.29;;;;
2019/05/02 01:10:00;;;;;;;11.55;5.5;;;;;;;5.22;65.0791;94732.62;;;;
2019/05/02 01:11:02;;;;;;;11.55;5.5;;;;;;;5.22;65.0791;94732.62;;;;
2019/05/02 01:12:03;;;;;;;11.55;5.5;;;;;;;5.22;65.0791;94732.62;;;;
2019/05/02 01:13:04;;;;;;;11.55;5.5;;;;;;;5.22;65.0791;94732.62;;;;
2019/05/02 01:14:06;;;;;;;11.55;5.5;;;;;;;5.22;65.0791;94732.62;;;;
2019/05/02 01:15:07;;;;;;;11.55;5.5;;;;;;;5.22;65.0791;94732.62;;;;
2019/05/02 01:16:08;;;;;;;11.55;5.5;;;;;;;5.22;65.0791;94732.62;;;;
2019/05/02 01:17:09;;;;;;;11.55;5.5;;;;;;;5.22;65.0791;94732.62;;;;
2019/05/02 01:18:10;;;;;;;11.55;5.5;;;;;;;5.22;65.0791;94732.62;;;;
2019/05/02 01:19:12;;;;;;;11.55;5.5;;;;;;;5.22;65.0791;94732.62;;;;
2019/05/02 01:20:13;;;;;;;7.2;5.349999;;;;;;;5.16;65.09082;94729.6;;;;
2019/05/02 01:21:14;;;;;;;7.2;5.349999;;;;;;;5.16;65.09082;94729.6;;;;
2019/05/02 01:22:15;;;;;;;7.2;5.349999;;;;;;;5.16;65.09082;94729.6;;;;
2019/05/02 01:23:17;;;;;;;7.2;5.349999;;;;;;;5.16;65.09082;94729.6;;;;
2019/05/02 01:24:18;;;;;;;7.2;5.349999;;;;;;;5.16;65.09082;94729.6;;;;
2019/05/02 01:25:19;;;;;;;7.2;5.349999;;;;;;;5.16;65.09082;94729.6;;;;
2019/05/02 01:26:24;;;;;;;7.2;5.349999;;;;;;;5.16;65.09082;94729.6;;;;
2019/05/02 01:27:32;;;;;;;7.2;5.349999;;;;;;;5.16;65.09082;94729.6;;;;
2019/05/02 01:33:50;;;;;;;8.25;5.45;;;;;;;5.03;65.1875;94727.4;;;;
2019/05/02 01:35:03;;;;;;;8.25;5.45;;;;;;;5.03;65.1875;94727.4;;;;
2019/05/02 01:36:09;;;;;;;8.25;5.45;;;;;;;5.03;65.1875;94727.4;;;;
2019/05/02 01:37:16;;;;;;;8.25;5.45;;;;;;;5.03;65.1875;94727.4;;;;
2019/05/02 01:38:21;;;;;;;8.25;5.45;;;;;;;5.03;65.1875;94727.4;;;;
2019/05/02 01:39:22;;;;;;;8.25;5.45;;;;;;;5.03;65.1875;94727.4;;;;
2019/05/02 01:40:24;;;;;;;8.25;5.45;;;;;;;5.03;65.1875;94727.4;;;;
2019/05/02 01:41:25;;;;;;;7.050002;5.400001;;;;;;;4.98;65.21191;94720.14;;;;
2019/05/02 01:42:26;;;;;;;7.050002;5.400001;;;;;;;4.98;65.21191;94720.14;;;;
2019/05/02 01:43:27;;;;;;;7.050002;5.400001;;;;;;;4.98;65.21191;94720.14;;;;
2019/05/02 01:44:28;;;;;;;7.050002;5.400001;;;;;;;4.98;65.21191;94720.14;;;;
2019/05/02 01:45:29;;;;;;;7.050002;5.400001;;;;;;;4.98;65.21191;94720.14;;;;
2019/05/02 01:46:31;;;;;;;7.050002;5.400001;;;;;;;4.98;65.21191;94720.14;;;;
2019/05/02 01:47:32;;;;;;;7.050002;5.400001;;;;;;;4.98;65.21191;94720.14;;;;
2019/05/02 01:48:33;;;;;;;7.050002;5.400001;;;;;;;4.98;65.21191;94720.14;;;;
2019/05/02 01:49:34;;;;;;;7.050002;5.400001;;;;;;;4.98;65.21191;94720.14;;;;
2019/05/02 01:50:35;;;;;;;7.050002;5.400001;;;;;;;4.98;65.21191;94720.14;;;;
2019/05/02 01:51:37;;;;;;;7.050002;5.400001;;;;;;;4.98;65.21191;94720.14;;;;
2019/05/02 01:52:38;;;;;;;7.7;5.349999;;;;;;;4.82;65.3252;94709.95;;;;
2019/05/02 01:53:39;;;;;;;7.7;5.349999;;;;;;;4.82;65.3252;94709.95;;;;
2019/05/02 01:54:41;;;;;;;7.7;5.349999;;;;;;;4.82;65.3252;94709.95;;;;
2019/05/02 01:55:42;;;;;;;7.7;5.349999;;;;;;;4.82;65.3252;94709.95;;;;
2019/05/02 01:56:43;;;;;;;7.7;5.349999;;;;;;;4.82;65.3252;94709.95;;;;
2019/05/02 01:57:44;;;;;;;7.7;5.349999;;;;;;;4.82;65.3252;94709.95;;;;
2019/05/02 01:58:45;;;;;;;7.7;5.349999;;;;;;;4.82;65.3252;94709.95;;;;
2019/05/02 01:59:47;;;;;;;7.7;5.349999;;;;;;;4.82;65.3252;94709.95;;;;
2019/05/02 02:00:48;;;;;;;7.7;5.349999;;;;;;;4.82;65.3252;94709.95;;;;
2019/05/02 02:01:49;;;;;;;7.7;5.349999;;;;;;;4.82;65.3252;94709.95;;;;
2019/05/02 02:02:50;;;;;;;8.250002;5.75;;;;;;;4.74;65.41797;94707.93;;;;
2019/05/02 02:03:51;;;;;;;8.250002;5.75;;;;;;;4.74;65.41797;94707.93;;;;
2019/05/02 02:04:52;;;;;;;8.250002;5.75;;;;;;;4.74;65.41797;94707.93;;;;
2019/05/02 02:05:54;;;;;;;8.250002;5.75;;;;;;;4.74;65.41797;94707.93;;;;
2019/05/02 02:06:55;;;;;;;8.250002;5.75;;;;;;;4.74;65.41797;94707.93;;;;
2019/05/02 02:07:56;;;;;;;8.250002;5.75;;;;;;;4.74;65.41797;94707.93;;;;
2019/05/02 02:08:57;;;;;;;8.250002;5.75;;;;;;;4.74;65.41797;94707.93;;;;
2019/05/02 02:09:58;;;;;;;8.250002;5.75;;;;;;;4.74;65.41797;94707.93;;;;
2019/05/02 02:10:59;;;;;;;8.250002;5.75;;;;;;;4.74;65.41797;94707.93;;;;
2019/05/02 02:12:00;;;;;;;8.250002;5.75;;;;;;;4.74;65.41797;94707.93;;;;
2019/05/02 02:13:02;;;;;;;7.5;5.200001;;;;;;;4.62;65.51563;94710.06;;;;
2019/05/02 02:14:03;;;;;;;7.5;5.200001;;;;;;;4.62;65.51563;94710.06;;;;
2019/05/02 02:15:04;;;;;;;7.5;5.200001;;;;;;;4.62;65.51563;94710.06;;;;
2019/05/02 02:16:05;;;;;;;7.5;5.200001;;;;;;;4.62;65.51563;94710.06;;;;
2019/05/02 02:17:06;;;;;;;7.5;5.200001;;;;;;;4.62;65.51563;94710.06;;;;
2019/05/02 02:18:07;;;;;;;7.5;5.200001;;;;;;;4.62;65.51563;94710.06;;;;
2019/05/02 02:19:17;;;;;;;7.5;5.200001;;;;;;;4.62;65.51563;94710.06;;;;
2019/05/02 02:20:21;;;;;;;7.5;5.200001;;;;;;;4.62;65.51563;94710.06;;;;
2019/05/02 02:21:33;;;;;;;7.5;5.200001;;;;;;;4.62;65.51563;94710.06;;;;
2019/05/02 02:22:44;;;;;;;7.5;5.200001;;;;;;;4.62;65.51563;94710.06;;;;
2019/05/02 02:23:51;;;;;;;6.7;5.100001;;;;;;;4.61;65.62207;94704.39;;;;
2019/05/02 02:25:59;;;;;;;6.7;5.100001;;;;;;;4.61;65.62207;94704.39;;;;
2019/05/02 02:27:00;;;;;;;6.7;5.100001;;;;;;;4.61;65.62207;94704.39;;;;
2019/05/02 02:28:01;;;;;;;6.7;5.100001;;;;;;;4.61;65.62207;94704.39;;;;
2019/05/02 02:29:03;;;;;;;6.7;5.100001;;;;;;;4.61;65.62207;94704.39;;;;
2019/05/02 02:30:04;;;;;;;6.7;5.100001;;;;;;;4.61;65.62207;94704.39;;;;
2019/05/02 02:31:05;;;;;;;6.7;5.100001;;;;;;;4.61;65.62207;94704.39;;;;
2019/05/02 02:32:06;;;;;;;6.7;5.100001;;;;;;;4.61;65.62207;94704.39;;;;
2019/05/02 02:33:07;;;;;;;6.7;5.100001;;;;;;;4.61;65.62207;94704.39;;;;
2019/05/02 02:34:09;;;;;;;5.7;4.8;;;;;;;4.53;65.72559;94706;;;;
2019/05/02 02:35:10;;;;;;;5.7;4.8;;;;;;;4.53;65.72559;94706;;;;
2019/05/02 02:36:11;;;;;;;5.7;4.8;;;;;;;4.53;65.72559;94706;;;;
2019/05/02 02:37:12;;;;;;;5.7;4.8;;;;;;;4.53;65.72559;94706;;;;
2019/05/02 02:38:13;;;;;;;5.7;4.8;;;;;;;4.53;65.72559;94706;;;;
2019/05/02 02:39:14;;;;;;;5.7;4.8;;;;;;;4.53;65.72559;94706;;;;
2019/05/02 02:40:16;;;;;;;5.7;4.8;;;;;;;4.53;65.72559;94706;;;;
2019/05/02 02:41:17;;;;;;;5.7;4.8;;;;;;;4.53;65.72559;94706;;;;
2019/05/02 02:42:18;;;;;;;5.7;4.8;;;;;;;4.53;65.72559;94706;;;;
2019/05/02 02:43:19;;;;;;;5.7;4.8;;;;;;;4.53;65.72559;94706;;;;
2019/05/02 02:44:35;;;;;;;5.7;4.8;;;;;;;4.53;65.72559;94706;;;;
2019/05/02 02:45:46;;;;;;;6.9;5.100001;;;;;;;4.52;65.80859;94703.92;;;;
2019/05/02 02:46:48;;;;;;;6.9;5.100001;;;;;;;4.52;65.80859;94703.92;;;;
2019/05/02 02:47:49;;;;;;;6.9;5.100001;;;;;;;4.52;65.80859;94703.92;;;;
2019/05/02 02:48:51;;;;;;;6.9;5.100001;;;;;;;4.52;65.80859;94703.92;;;;
2019/05/02 02:49:52;;;;;;;6.9;5.100001;;;;;;;4.52;65.80859;94703.92;;;;
2019/05/02 02:50:53;;;;;;;6.9;5.100001;;;;;;;4.52;65.80859;94703.92;;;;
2019/05/02 02:51:54;;;;;;;6.9;5.100001;;;;;;;4.52;65.80859;94703.92;;;;
2019/05/02 02:52:55;;;;;;;6.9;5.100001;;;;;;;4.52;65.80859;94703.92;;;;
2019/05/02 02:53:56;;;;;;;6.9;5.100001;;;;;;;4.52;65.80859;94703.92;;;;
2019/05/02 02:54:57;;;;;;;6.9;5.100001;;;;;;;4.52;65.80859;94703.92;;;;
2019/05/02 02:55:58;;;;;;;8.8;5.450001;;;;;;;4.49;66.34375;94702.51;;;;
2019/05/02 02:57:00;;;;;;;8.8;5.450001;;;;;;;4.49;66.34375;94702.51;;;;
2019/05/02 02:58:01;;;;;;;8.8;5.450001;;;;;;;4.49;66.34375;94702.51;;;;
2019/05/02 02:59:02;;;;;;;8.8;5.450001;;;;;;;4.49;66.34375;94702.51;;;;
2019/05/02 03:00:03;;;;;;;8.8;5.450001;;;;;;;4.49;66.34375;94702.51;;;;
2019/05/02 03:01:04;;;;;;;8.8;5.450001;;;;;;;4.49;66.34375;94702.51;;;;
2019/05/02 03:02:05;;;;;;;8.8;5.450001;;;;;;;4.49;66.34375;94702.51;;;;
2019/05/02 03:03:06;;;;;;;8.8;5.450001;;;;;;;4.49;66.34375;94702.51;;;;
2019/05/02 03:04:07;;;;;;;8.8;5.450001;;;;;;;4.49;66.34375;94702.51;;;;
2019/05/02 03:05:08;;;;;;;8.8;5.450001;;;;;;;4.49;66.34375;94702.51;;;;
2019/05/02 03:06:09;;;;;;;7.249999;4.95;;;;;;;4.52;66.34961;94693.14;;;;
2019/05/02 03:07:10;;;;;;;7.249999;4.95;;;;;;;4.52;66.34961;94693.14;;;;
2019/05/02 03:08:12;;;;;;;7.249999;4.95;;;;;;;4.52;66.34961;94693.14;;;;
2019/05/02 03:09:13;;;;;;;7.249999;4.95;;;;;;;4.52;66.34961;94693.14;;;;
2019/05/02 03:10:14;;;;;;;7.249999;4.95;;;;;;;4.52;66.34961;94693.14;;;;
2019/05/02 03:11:17;;;;;;;7.249999;4.95;;;;;;;4.52;66.34961;94693.14;;;;
2019/05/02 03:17:26;;;;;;;7.9;4.95;;;;;;;4.57;66.50293;94689.81;;;;
2019/05/02 03:18:27;;;;;;;7.9;4.95;;;;;;;4.57;66.50293;94689.81;;;;
2019/05/02 03:19:28;;;;;;;7.9;4.95;;;;;;;4.57;66.50293;94689.81;;;;
2019/05/02 03:20:29;;;;;;;7.9;4.95;;;;;;;4.57;66.50293;94689.81;;;;
2019/05/02 03:21:31;;;;;;;7.9;4.95;;;;;;;4.57;66.50293;94689.81;;;;
2019/05/02 03:22:32;;;;;;;7.9;4.95;;;;;;;4.57;66.50293;94689.81;;;;
2019/05/02 03:23:33;;;;;;;7.9;4.95;;;;;;;4.57;66.50293;94689.81;;;;
2019/05/02 03:24:34;;;;;;;7.9;4.95;;;;;;;4.57;66.50293;94689.81;;;;
2019/05/02 03:25:35;;;;;;;7.9;4.95;;;;;;;4.57;66.50293;94689.81;;;;
2019/05/02 03:26:36;;;;;;;7.9;4.95;;;;;;;4.57;66.50293;94689.81;;;;
2019/05/02 03:27:37;;;;;;;5.900001;4.599999;;;;;;;4.72;66.35742;94681.92;;;;
2019/05/02 03:28:38;;;;;;;5.900001;4.599999;;;;;;;4.72;66.35742;94681.92;;;;
2019/05/02 03:29:39;;;;;;;5.900001;4.599999;;;;;;;4.72;66.35742;94681.92;;;;
2019/05/02 03:30:40;;;;;;;5.900001;4.599999;;;;;;;4.72;66.35742;94681.92;;;;
2019/05/02 03:31:42;;;;;;;5.900001;4.599999;;;;;;;4.72;66.35742;94681.92;;;;
2019/05/02 03:32:43;;;;;;;5.900001;4.599999;;;;;;;4.72;66.35742;94681.92;;;;
2019/05/02 03:33:44;;;;;;;5.900001;4.599999;;;;;;;4.72;66.35742;94681.92;;;;
2019/05/02 03:34:45;;;;;;;5.900001;4.599999;;;;;;;4.72;66.35742;94681.92;;;;
2019/05/02 03:35:46;;;;;;;5.900001;4.599999;;;;;;;4.72;66.35742;94681.92;;;;
2019/05/02 03:36:47;;;;;;;5.900001;4.599999;;;;;;;4.72;66.35742;94681.92;;;;
2019/05/02 03:37:49;;;;;;;5.900001;4.599999;;;;;;;4.72;66.35742;94681.92;;;;
2019/05/02 03:38:51;;;;;;;5.65;4.55;;;;;;;4.7;66.37695;94689.23;;;;
2019/05/02 03:39:52;;;;;;;5.65;4.55;;;;;;;4.7;66.37695;94689.23;;;;
2019/05/02 03:40:53;;;;;;;5.65;4.55;;;;;;;4.7;66.37695;94689.23;;;;
2019/05/02 03:41:54;;;;;;;5.65;4.55;;;;;;;4.7;66.37695;94689.23;;;;
2019/05/02 03:42:55;;;;;;;5.65;4.55;;;;;;;4.7;66.37695;94689.23;;;;
2019/05/02 03:43:56;;;;;;;5.65;4.55;;;;;;;4.7;66.37695;94689.23;;;;
2019/05/02 03:44:57;;;;;;;5.65;4.55;;;;;;;4.7;66.37695;94689.23;;;;
2019/05/02 03:45:58;;;;;;;5.65;4.55;;;;;;;4.7;66.37695;94689.23;;;;
2019/05/02 03:46:59;;;;;;;5.65;4.55;;;;;;;4.7;66.37695;94689.23;;;;
2019/05/02 03:48:01;;;;;;;5.65;4.55;;;;;;;4.7;66.37695;94689.23;;;;
2019/05/02 03:49:02;;;;;;;5.699999;4.55;;;;;;;4.75;66.35254;94678.83;;;;
2019/05/02 03:50:03;;;;;;;5.699999;4.55;;;;;;;4.75;66.35254;94678.83;;;;
2019/05/02 03:51:04;;;;;;;5.699999;4.55;;;;;;;4.75;66.35254;94678.83;;;;
2019/05/02 03:52:05;;;;;;;5.699999;4.55;;;;;;;4.75;66.35254;94678.83;;;;
2019/05/02 03:53:06;;;;;;;5.699999;4.55;;;;;;;4.75;66.35254;94678.83;;;;
2019/05/02 03:54:07;;;;;;;5.699999;4.55;;;;;;;4.75;66.35254;94678.83;;;;
2019/05/02 03:55:08;;;;;;;5.699999;4.55;;;;;;;4.75;66.35254;94678.83;;;;
2019/05/02 03:56:09;;;;;;;5.699999;4.55;;;;;;;4.75;66.35254;94678.83;;;;
2019/05/02 03:57:10;;;;;;;5.699999;4.55;;;;;;;4.75;66.35254;94678.83;;;;
2019/05/02 03:58:11;;;;;;;5.699999;4.55;;;;;;;4.75;66.35254;94678.83;;;;
2019/05/02 03:59:13;;;;;;;6.349999;4.9;;;;;;;4.73;66.43262;94676.89;;;;
2019/05/02 04:00:14;;;;;;;6.349999;4.9;;;;;;;4.73;66.43262;94676.89;;;;
2019/05/02 04:01:15;;;;;;;6.349999;4.9;;;;;;;4.73;66.43262;94676.89;;;;
2019/05/02 04:02:16;;;;;;;6.349999;4.9;;;;;;;4.73;66.43262;94676.89;;;;
2019/05/02 04:03:17;;;;;;;6.349999;4.9;;;;;;;4.73;66.43262;94676.89;;;;
2019/05/02 04:04:18;;;;;;;6.349999;4.9;;;;;;;4.73;66.43262;94676.89;;;;
2019/05/02 04:05:19;;;;;;;6.349999;4.9;;;;;;;4.73;66.43262;94676.89;;;;
2019/05/02 04:06:21;;;;;;;6.349999;4.9;;;;;;;4.73;66.43262;94676.89;;;;
2019/05/02 04:07:22;;;;;;;6.349999;4.9;;;;;;;4.73;66.43262;94676.89;;;;
2019/05/02 04:08:23;;;;;;;6.349999;4.9;;;;;;;4.73;66.43262;94676.89;;;;
2019/05/02 04:09:27;;;;;;;6.349999;4.9;;;;;;;4.73;66.43262;94676.89;;;;
2019/05/02 04:10:30;;;;;;;8.250001;4.849999;;;;;;;4.8;66.45508;94677.12;;;;
2019/05/02 04:12:21;;;;;;;8.250001;4.849999;;;;;;;4.8;66.45508;94677.12;;;;
2019/05/02 04:13:22;;;;;;;8.250001;4.849999;;;;;;;4.8;66.45508;94677.12;;;;
2019/05/02 04:14:23;;;;;;;8.250001;4.849999;;;;;;;4.8;66.45508;94677.12;;;;
2019/05/02 04:15:24;;;;;;;8.250001;4.849999;;;;;;;4.8;66.45508;94677.12;;;;
2019/05/02 04:16:26;;;;;;;8.250001;4.849999;;;;;;;4.8;66.45508;94677.12;;;;
2019/05/02 04:17:27;;;;;;;8.250001;4.849999;;;;;;;4.8;66.45508;94677.12;;;;
2019/05/02 04:18:29;;;;;;;8.250001;4.849999;;;;;;;4.8;66.45508;94677.12;;;;
2019/05/02 04:19:30;;;;;;;8.250001;4.849999;;;;;;;4.8;66.45508;94677.12;;;;
2019/05/02 04:20:31;;;;;;;6.3;4.7;;;;;;;4.88;66.59473;94682.23;;;;
2019/05/02 04:21:32;;;;;;;6.3;4.7;;;;;;;4.88;66.59473;94682.23;;;;
2019/05/02 04:22:34;;;;;;;6.3;4.7;;;;;;;4.88;66.59473;94682.23;;;;
2019/05/02 04:23:35;;;;;;;6.3;4.7;;;;;;;4.88;66.59473;94682.23;;;;
2019/05/02 04:24:36;;;;;;;6.3;4.7;;;;;;;4.88;66.59473;94682.23;;;;
2019/05/02 04:25:37;;;;;;;6.3;4.7;;;;;;;4.88;66.59473;94682.23;;;;
2019/05/02 04:26:38;;;;;;;6.3;4.7;;;;;;;4.88;66.59473;94682.23;;;;
2019/05/02 04:27:39;;;;;;;6.3;4.7;;;;;;;4.88;66.59473;94682.23;;;;
2019/05/02 04:28:40;;;;;;;6.3;4.7;;;;;;;4.88;66.59473;94682.23;;;;
2019/05/02 04:29:42;;;;;;;6.3;4.7;;;;;;;4.88;66.59473;94682.23;;;;
2019/05/02 04:30:43;;;;;;;6.3;4.7;;;;;;;4.88;66.59473;94682.23;;;;
2019/05/02 04:31:44;;;;;;;5.799999;4.8;;;;;;;5.09;66.47852;94691.24;;;;
2019/05/02 04:32:45;;;;;;;5.799999;4.8;;;;;;;5.09;66.47852;94691.24;;;;
2019/05/02 04:33:46;;;;;;;5.799999;4.8;;;;;;;5.09;66.47852;94691.24;;;;
2019/05/02 04:34:47;;;;;;;5.799999;4.8;;;;;;;5.09;66.47852;94691.24;;;;
2019/05/02 04:35:48;;;;;;;5.799999;4.8;;;;;;;5.09;66.47852;94691.24;;;;
2019/05/02 04:36:49;;;;;;;5.799999;4.8;;;;;;;5.09;66.47852;94691.24;;;;
2019/05/02 04:37:50;;;;;;;5.799999;4.8;;;;;;;5.09;66.47852;94691.24;;;;
2019/05/02 04:38:51;;;;;;;5.799999;4.8;;;;;;;5.09;66.47852;94691.24;;;;
2019/05/02 04:39:52;;;;;;;5.799999;4.8;;;;;;;5.09;66.47852;94691.24;;;;
2019/05/02 04:40:53;;;;;;;5.799999;4.8;;;;;;;5.09;66.47852;94691.24;;;;
2019/05/02 04:41:54;;;;;;;5.55;4.649999;;;;;;;5.25;66.48242;94692.97;;;;
2019/05/02 04:42:56;;;;;;;5.55;4.649999;;;;;;;5.25;66.48242;94692.97;;;;
2019/05/02 04:43:57;;;;;;;5.55;4.649999;;;;;;;5.25;66.48242;94692.97;;;;
2019/05/02 04:44:58;;;;;;;5.55;4.649999;;;;;;;5.25;66.48242;94692.97;;;;
2019/05/02 04:45:59;;;;;;;5.55;4.649999;;;;;;;5.25;66.48242;94692.97;;;;
2019/05/02 04:47:00;;;;;;;5.55;4.649999;;;;;;;5.25;66.48242;94692.97;;;;
2019/05/02 04:48:01;;;;;;;5.55;4.649999;;;;;;;5.25;66.48242;94692.97;;;;
2019/05/02 04:49:02;;;;;;;5.55;4.649999;;;;;;;5.25;66.48242;94692.97;;;;
2019/05/02 04:50:03;;;;;;;5.55;4.649999;;;;;;;5.25;66.48242;94692.97;;;;
2019/05/02 04:51:04;;;;;;;5.55;4.649999;;;;;;;5.25;66.48242;94692.97;;;;
2019/05/02 04:52:05;;;;;;;6.55;4.85;;;;;;;5.55;66.34668;94691.39;;;;
2019/05/02 04:53:06;;;;;;;6.55;4.85;;;;;;;5.55;66.34668;94691.39;;;;
2019/05/02 04:54:07;;;;;;;6.55;4.85;;;;;;;5.55;66.34668;94691.39;;;;
2019/05/02 04:55:08;;;;;;;6.55;4.85;;;;;;;5.55;66.34668;94691.39;;;;
2019/05/02 04:56:09;;;;;;;6.55;4.85;;;;;;;5.55;66.34668;94691.39;;;;
2019/05/02 04:57:11;;;;;;;6.55;4.85;;;;;;;5.55;66.34668;94691.39;;;;
2019/05/02 04:58:12;;;;;;;6.55;4.85;;;;;;;5.55;66.34668;94691.39;;;;
2019/05/02 04:59:13;;;;;;;6.55;4.85;;;;;;;5.55;66.34668;94691.39;;;;
2019/05/02 05:00:14;;;;;;;6.55;4.85;;;;;;;5.55;66.34668;94691.39;;;;
2019/05/02 05:01:27;;;;;;;6.55;4.85;;;;;;;5.55;66.34668;94691.39;;;;
2019/05/02 05:02:28;;;;;;;6.55;4.85;;;;;;;5.55;66.34668;94691.39;;;;
2019/05/02 05:03:30;;;;;;;5.2;4.550001;;;;;;;5.85;66.12793;94691.03;;;;
2019/05/02 05:04:31;;;;;;;5.2;4.550001;;;;;;;5.85;66.12793;94691.03;;;;
2019/05/02 05:05:32;;;;;;;5.2;4.550001;;;;;;;5.85;66.12793;94691.03;;;;
2019/05/02 05:06:33;;;;;;;5.2;4.550001;;;;;;;5.85;66.12793;94691.03;;;;
2019/05/02 05:07:34;;;;;;;5.2;4.550001;;;;;;;5.85;66.12793;94691.03;;;;
2019/05/02 05:08:35;;;;;;;5.2;4.550001;;;;;;;5.85;66.12793;94691.03;;;;
2019/05/02 05:09:36;;;;;;;5.2;4.550001;;;;;;;5.85;66.12793;94691.03;;;;
2019/05/02 05:10:37;;;;;;;5.2;4.550001;;;;;;;5.85;66.12793;94691.03;;;;
2019/05/02 05:11:38;;;;;;;5.2;4.550001;;;;;;;5.85;66.12793;94691.03;;;;
2019/05/02 05:12:39;;;;;;;5.2;4.550001;;;;;;;5.85;66.12793;94691.03;;;;
2019/05/02 05:13:40;;;;;;;6.7;4.699999;;;;;;;6.3;65.74121;94699.1;;;;
2019/05/02 05:14:41;;;;;;;6.7;4.699999;;;;;;;6.3;65.74121;94699.1;;;;
2019/05/02 05:15:42;;;;;;;6.7;4.699999;;;;;;;6.3;65.74121;94699.1;;;;
2019/05/02 05:16:43;;;;;;;6.7;4.699999;;;;;;;6.3;65.74121;94699.1;;;;
2019/05/02 05:17:44;;;;;;;6.7;4.699999;;;;;;;6.3;65.74121;94699.1;;;;
2019/05/02 05:18:45;;;;;;;6.7;4.699999;;;;;;;6.3;65.74121;94699.1;;;;
2019/05/02 05:19:46;;;;;;;6.7;4.699999;;;;;;;6.3;65.74121;94699.1;;;;
2019/05/02 05:20:48;;;;;;;6.7;4.699999;;;;;;;6.3;65.74121;94699.1;;;;
2019/05/02 05:21:49;;;;;;;6.7;4.699999;;;;;;;6.3;65.74121;94699.1;;;;
2019/05/02 05:22:50;;;;;;;6.7;4.699999;;;;;;;6.3;65.74121;94699.1;;;;
2019/05/02 05:27:49;;;;;;;5.45;4.35;;;;;;;6.86;65.40137;94696.94;;;;
2019/05/02 05:28:50;;;;;;;5.45;4.35;;;;;;;6.86;65.40137;94696.94;;;;
2019/05/02 05:29:51;;;;;;;5.45;4.35;;;;;;;6.86;65.40137;94696.94;;;;
2019/05/02 05:30:52;;;;;;;5.45;4.35;;;;;;;6.86;65.40137;94696.94;;;;
2019/05/02 05:31:53;;;;;;;5.45;4.35;;;;;;;6.86;65.40137;94696.94;;;;
2019/05/02 05:32:54;;;;;;;5.45;4.35;;;;;;;6.86;65.40137;94696.94;;;;
2019/05/02 05:33:55;;;;;;;5.45;4.35;;;;;;;6.86;65.40137;94696.94;;;;
2019/05/02 05:34:56;;;;;;;5.9;4.4;;;;;;;7.45;64.90234;94699.28;;;;
2019/05/02 05:35:57;;;;;;;5.9;4.4;;;;;;;7.45;64.90234;94699.28;;;;
2019/05/02 05:36:58;;;;;;;5.9;4.4;;;;;;;7.45;64.90234;94699.28;;;;
2019/05/02 05:37:59;;;;;;;5.9;4.4;;;;;;;7.45;64.90234;94699.28;;;;
2019/05/02 05:39:00;;;;;;;5.9;4.4;;;;;;;7.45;64.90234;94699.28;;;;
2019/05/02 05:40:02;;;;;;;5.9;4.4;;;;;;;7.45;64.90234;94699.28;;;;
2019/05/02 05:41:03;;;;;;;5.9;4.4;;;;;;;7.45;64.90234;94699.28;;;;
2019/05/02 05:42:04;;;;;;;5.9;4.4;;;;;;;7.45;64.90234;94699.28;;;;
2019/05/02 05:43:05;;;;;;;5.9;4.4;;;;;;;7.45;64.90234;94699.28;;;;
2019/05/02 05:44:06;;;;;;;5.9;4.4;;;;;;;7.45;64.90234;94699.28;;;;
2019/05/02 05:45:07;;;;;;;6.250001;4.55;;;;;;;7.94;64.29492;94695.23;;;;
2019/05/02 05:46:09;;;;;;;6.250001;4.55;;;;;;;7.94;64.29492;94695.23;;;;
2019/05/02 05:47:10;;;;;;;6.250001;4.55;;;;;;;7.94;64.29492;94695.23;;;;
2019/05/02 05:48:11;;;;;;;6.250001;4.55;;;;;;;7.94;64.29492;94695.23;;;;
2019/05/02 05:49:12;;;;;;;6.250001;4.55;;;;;;;7.94;64.29492;94695.23;;;;
2019/05/02 05:50:13;;;;;;;6.250001;4.55;;;;;;;7.94;64.29492;94695.23;;;;
2019/05/02 05:51:14;;;;;;;6.250001;4.55;;;;;;;7.94;64.29492;94695.23;;;;
2019/05/02 05:52:15;;;;;;;6.250001;4.55;;;;;;;7.94;64.29492;94695.23;;;;
2019/05/02 05:53:16;;;;;;;6.250001;4.55;;;;;;;7.94;64.29492;94695.23;;;;
2019/05/02 05:54:17;;;;;;;6.250001;4.55;;;;;;;7.94;64.29492;94695.23;;;;
2019/05/02 05:55:19;;;;;;;6.250001;4.55;;;;;;;7.94;64.29492;94695.23;;;;
2019/05/02 05:56:20;;;;;;;6.35;4.45;;;;;;;8.54;63.92285;94699.4;;;;
2019/05/02 05:57:21;;;;;;;6.35;4.45;;;;;;;8.54;63.92285;94699.4;;;;
2019/05/02 05:58:22;;;;;;;6.35;4.45;;;;;;;8.54;63.92285;94699.4;;;;
2019/05/02 05:59:23;;;;;;;6.35;4.45;;;;;;;8.54;63.92285;94699.4;;;;
2019/05/02 06:00:24;;;;;;;6.35;4.45;;;;;;;8.54;63.92285;94699.4;;;;